Terminal Aerodrome Forecast
Issued by NWS Greer, SC

Home | Current Version | Previous Version | Text Only | Print | Product List | Glossary On
Versions: 1 2 3 4 5 6 7 8 9 10 11 12 13 14 15 16 17
631
FTUS42 KGSP 051137
TAFGSP
TAF
KGSP 051137Z 0512/0612 33008KT P6SM BKN080
     FM051500 33012G20KT P6SM SCT070
     FM051700 33012G20KT P6SM VCSH SCT060 PROB30 0521/0601 4SM -SHRA
      BKN070 BKN080 BKN090
     FM060100 32009KT P6SM SCT090
     FM060200 31007KT P6SM BKN080=

USA.gov is the U.S. government's official web portal to all federal, state and local government web resources and services.